Corsair — WDI5217 — position and weather

sailwx.info

Track history (hours):
 
Tides and Currents Weather Stations Pressure Air Temp Water Temp Dewpoint Dewpoint Depression Visibility Wind Speed Wind Dir Waves Ship Positions

Corsair

Owner: MIFC SHIPPING LLC, Saint Ignace, MI. More information available from US FCC via Universal Licensing System and Coast Guard Vessel Documentation Center.

Last reported at 2017-Dec-14 18:16 UTC. Time now 2017-Dec-15 04:35 UTC.
Position N 45°51' W 084°42'.

Length 28 m; draft 2.1 m.

Type: Cargo ship. MMSI: 367706320.

Date/timePositionNaut miles runAvg speedWind from/ knotsBaromVisibWave heightAir tempDewpointWater temp
2017-Dec-14 18:16N 45°51' W 084°42'2 8.3
2017-Dec-14 18:00N 45°51' W 084°39'1 1.6
2017-Dec-14 17:08N 45°51' W 084°37'1 3.3
2017-Dec-14 16:57N 45°51' W 084°38'3 1.1
2017-Dec-14 14:16N 45°51' W 084°42'2 8.2
2017-Dec-14 14:01N 45°51' W 084°39'1 2.9
2017-Dec-14 13:31N 45°51' W 084°37'4 6.8
2017-Dec-14 13:00N 45°51' W 084°42'0 0.6
2017-Dec-14 12:30N 45°52' W 084°42'1 0.1
2017-Dec-13 18:20N 45°52' W 084°43'3 8.4
2017-Dec-13 17:59N 45°51' W 084°40'2 2.9
2017-Dec-13 17:17N 45°51' W 084°37'2 7.3
2017-Dec-13 16:59N 45°51' W 084°40'2 1.2
2017-Dec-13 15:45N 45°51' W 084°42'2 7.7
2017-Dec-13 15:30N 45°51' W 084°40'2 3.0
2017-Dec-13 14:55N 45°51' W 084°37'0 0.0
2017-Dec-13 14:02N 45°51' W 084°37'0 0.0
2017-Dec-13 13:59N 45°51' W 084°37'2 4.6
2017-Dec-13 13:30N 45°51' W 084°40'1 2.1
2017-Dec-13 12:51N 45°51' W 084°42'1 0.0
2017-Dec-12 18:14N 45°52' W 084°42'2 8.4
2017-Dec-12 18:00N 45°51' W 084°40'2 0.9
2017-Dec-12 15:34N 45°51' W 084°37'0 0.0
2017-Dec-12 15:30N 45°51' W 084°37'0 0.0
2017-Dec-12 15:00N 45°51' W 084°37'3 6.0
2017-Dec-12 14:30N 45°52' W 084°41'2 1.0
2017-Dec-12 12:38N 45°52' W 084°43'1 7.8
2017-Dec-12 12:30N 45°52' W 084°42'0 0.0
2017-Dec-11 18:51N 45°52' W 084°42'1 1.2
2017-Dec-11 17:57N 45°51' W 084°41'3 5.2
2017-Dec-11 17:24N 45°51' W 084°37'0 0.4
2017-Dec-11 16:54N 45°51' W 084°37'3 8.2
2017-Dec-11 16:29N 45°51' W 084°42'0 0.1
2017-Dec-11 13:53N 45°51' W 084°42'3 8.5
2017-Dec-11 13:30N 45°51' W 084°38'1 1.0
2017-Dec-11 13:00N 45°51' W 084°38'3 3.7
2017-Dec-11 12:16N 45°51' W 084°42'1 0.0
2017-Dec-09 16:51N 45°51' W 084°41'3 7.3
2017-Dec-09 16:29N 45°51' W 084°37'0 0.4
2017-Dec-09 15:59N 45°51' W 084°37'4 3.1
2017-Dec-09 14:47N 45°51' W 084°42'2 8.5
2017-Dec-09 14:30N 45°51' W 084°39'1 1.6
2017-Dec-09 13:45N 45°51' W 084°37'1 4.5
2017-Dec-09 13:30N 45°51' W 084°38'3 5.4
2017-Dec-09 12:59N 45°52' W 084°42'1 0.0
2017-Dec-08 18:32N 45°52' W 084°43'0 8.1
2017-Dec-08 18:29N 45°52' W 084°42'4 3.3
2017-Dec-08 17:16N 45°51' W 084°37'2 6.7
2017-Dec-08 16:55N 45°51' W 084°40'1 0.6
2017-Dec-08 14:30N 45°51' W 084°42'2 4.7
2017-Dec-08 14:00N 45°51' W 084°39'1 2.8
2017-Dec-08 13:30N 45°51' W 084°37'4 7.1
2017-Dec-08 13:00N 45°51' W 084°42'0 0.1
2017-Dec-08 12:30N 45°51' W 084°42'1 2.8
2017-Dec-08 12:00N 45°52' W 084°44'0 0.0
2017-Dec-07 18:10N 45°52' W 084°44'1 4.6
2017-Dec-07 18:00N 45°52' W 084°43'4 8.2
2017-Dec-07 17:30N 45°51' W 084°37'0 0.5
2017-Dec-07 17:00N 45°51' W 084°37'1 2.1
2017-Dec-07 16:30N 45°51' W 084°38'3 5.3
2017-Dec-07 16:00N 45°51' W 084°42'0 0.0
2017-Dec-07 15:30N 45°51' W 084°42'0 0.0
2017-Dec-07 15:00N 45°51' W 084°42'0 0.0
2017-Dec-07 14:30N 45°51' W 084°42'1 2.8
2017-Dec-07 14:00N 45°51' W 084°40'2 4.5
2017-Dec-07 13:30N 45°51' W 084°37'2 3.8
2017-Dec-07 13:00N 45°51' W 084°40'2 3.5
2017-Dec-07 12:30N 45°51' W 084°42'1 2.8
2017-Dec-07 12:00N 45°52' W 084°44'0 0.0
2017-Dec-07 11:30N 45°52' W 084°44'  
Track history (hours):
 
Tides and Currents Weather Stations Pressure Air Temp Water Temp Dewpoint Dewpoint Depression Visibility Wind Speed Wind Dir Waves Ship Positions

Corsair

Owner: MIFC SHIPPING LLC, Saint Ignace, MI. More information available from US FCC via Universal Licensing System and Coast Guard Vessel Documentation Center.

Last reported at 2017-Dec-14 18:16 UTC. Time now 2017-Dec-15 04:35 UTC.
Position N 45°51' W 084°42'.

Length 28 m; draft 2.1 m.

Type: Cargo ship. MMSI: 367706320.

Date/timePositionNaut miles runAvg speedWind from/ knotsBaromVisibWave heightAir tempDewpointWater temp
2017-Dec-14 18:16N 45°51' W 084°42'2 8.3
2017-Dec-14 18:00N 45°51' W 084°39'1 1.6
2017-Dec-14 17:08N 45°51' W 084°37'1 3.3
2017-Dec-14 16:57N 45°51' W 084°38'3 1.1
2017-Dec-14 14:16N 45°51' W 084°42'2 8.2
2017-Dec-14 14:01N 45°51' W 084°39'1 2.9
2017-Dec-14 13:31N 45°51' W 084°37'4 6.8
2017-Dec-14 13:00N 45°51' W 084°42'0 0.6
2017-Dec-14 12:30N 45°52' W 084°42'1 0.1
2017-Dec-13 18:20N 45°52' W 084°43'3 8.4
2017-Dec-13 17:59N 45°51' W 084°40'2 2.9
2017-Dec-13 17:17N 45°51' W 084°37'2 7.3
2017-Dec-13 16:59N 45°51' W 084°40'2 1.2
2017-Dec-13 15:45N 45°51' W 084°42'2 7.7
2017-Dec-13 15:30N 45°51' W 084°40'2 3.0
2017-Dec-13 14:55N 45°51' W 084°37'0 0.0
2017-Dec-13 14:02N 45°51' W 084°37'0 0.0
2017-Dec-13 13:59N 45°51' W 084°37'2 4.6
2017-Dec-13 13:30N 45°51' W 084°40'1 2.1
2017-Dec-13 12:51N 45°51' W 084°42'1 0.0
2017-Dec-12 18:14N 45°52' W 084°42'2 8.4
2017-Dec-12 18:00N 45°51' W 084°40'2 0.9
2017-Dec-12 15:34N 45°51' W 084°37'0 0.0
2017-Dec-12 15:30N 45°51' W 084°37'0 0.0
2017-Dec-12 15:00N 45°51' W 084°37'3 6.0
2017-Dec-12 14:30N 45°52' W 084°41'2 1.0
2017-Dec-12 12:38N 45°52' W 084°43'1 7.8
2017-Dec-12 12:30N 45°52' W 084°42'0 0.0
2017-Dec-11 18:51N 45°52' W 084°42'1 1.2
2017-Dec-11 17:57N 45°51' W 084°41'3 5.2
2017-Dec-11 17:24N 45°51' W 084°37'0 0.4
2017-Dec-11 16:54N 45°51' W 084°37'3 8.2
2017-Dec-11 16:29N 45°51' W 084°42'0 0.1
2017-Dec-11 13:53N 45°51' W 084°42'3 8.5
2017-Dec-11 13:30N 45°51' W 084°38'1 1.0
2017-Dec-11 13:00N 45°51' W 084°38'3 3.7
2017-Dec-11 12:16N 45°51' W 084°42'1 0.0
2017-Dec-09 16:51N 45°51' W 084°41'3 7.3
2017-Dec-09 16:29N 45°51' W 084°37'0 0.4
2017-Dec-09 15:59N 45°51' W 084°37'4 3.1
2017-Dec-09 14:47N 45°51' W 084°42'2 8.5
2017-Dec-09 14:30N 45°51' W 084°39'1 1.6
2017-Dec-09 13:45N 45°51' W 084°37'1 4.5
2017-Dec-09 13:30N 45°51' W 084°38'3 5.4
2017-Dec-09 12:59N 45°52' W 084°42'1 0.0
2017-Dec-08 18:32N 45°52' W 084°43'0 8.1
2017-Dec-08 18:29N 45°52' W 084°42'4 3.3
2017-Dec-08 17:16N 45°51' W 084°37'2 6.7
2017-Dec-08 16:55N 45°51' W 084°40'1 0.6
2017-Dec-08 14:30N 45°51' W 084°42'2 4.7
2017-Dec-08 14:00N 45°51' W 084°39'1 2.8
2017-Dec-08 13:30N 45°51' W 084°37'4 7.1
2017-Dec-08 13:00N 45°51' W 084°42'0 0.1
2017-Dec-08 12:30N 45°51' W 084°42'1 2.8
2017-Dec-08 12:00N 45°52' W 084°44'0 0.0
2017-Dec-07 18:10N 45°52' W 084°44'1 4.6
2017-Dec-07 18:00N 45°52' W 084°43'4 8.2
2017-Dec-07 17:30N 45°51' W 084°37'0 0.5
2017-Dec-07 17:00N 45°51' W 084°37'1 2.1
2017-Dec-07 16:30N 45°51' W 084°38'3 5.3
2017-Dec-07 16:00N 45°51' W 084°42'0 0.0
2017-Dec-07 15:30N 45°51' W 084°42'0 0.0
2017-Dec-07 15:00N 45°51' W 084°42'0 0.0
2017-Dec-07 14:30N 45°51' W 084°42'1 2.8
2017-Dec-07 14:00N 45°51' W 084°40'2 4.5
2017-Dec-07 13:30N 45°51' W 084°37'2 3.8
2017-Dec-07 13:00N 45°51' W 084°40'2 3.5
2017-Dec-07 12:30N 45°51' W 084°42'1 2.8
2017-Dec-07 12:00N 45°52' W 084°44'0 0.0
2017-Dec-07 11:30N 45°52' W 084°44'  

Dump ship's entire track history